createdAt,value
2022-11-24T00:00:31.352Z,9.35
2022-11-24T00:05:38.326Z,9.60
2022-11-24T00:10:39.787Z,9.77
2022-11-24T00:15:41.236Z,9.52
2022-11-24T00:20:42.682Z,9.63
2022-11-24T00:25:44.134Z,10.52
2022-11-24T00:30:45.679Z,9.82
2022-11-24T00:35:54.613Z,10.40
2022-11-24T00:40:56.111Z,10.57
2022-11-24T00:45:57.687Z,10.23
2022-11-24T00:51:00.990Z,10.57
2022-11-24T00:56:03.938Z,11.18
2022-11-24T01:01:07.498Z,10.80
2022-11-24T01:06:13.463Z,10.43
2022-11-24T01:11:19.398Z,11.43
2022-11-24T01:16:31.862Z,11.43
2022-11-24T01:21:33.327Z,10.93
2022-11-24T01:26:34.779Z,10.25
2022-11-24T01:31:37.015Z,10.73
2022-11-24T01:36:38.514Z,10.88
2022-11-24T01:41:40.030Z,11.25
2022-11-24T01:46:44.816Z,11.15
2022-11-24T01:52:19.949Z,10.20
2022-11-24T01:57:29.621Z,11.80
2022-11-24T02:02:31.084Z,10.32
2022-11-24T02:07:32.610Z,10.60
2022-11-24T02:12:34.126Z,10.27
2022-11-24T02:17:35.672Z,10.88
2022-11-24T02:23:03.670Z,9.63
2022-11-24T02:28:07.270Z,11.23
2022-11-24T02:33:09.930Z,9.98
2022-11-24T02:38:12.818Z,11.90
2022-11-24T02:43:16.490Z,10.45
2022-11-24T02:48:17.965Z,10.48
2022-11-24T02:53:19.426Z,10.98
2022-11-24T02:58:20.939Z,10.30
2022-11-24T03:03:22.437Z,10.10
2022-11-24T03:08:23.898Z,10.18
2022-11-24T03:13:25.358Z,11.93
2022-11-24T03:18:26.806Z,11.25
2022-11-24T03:23:28.272Z,9.85
2022-11-24T03:28:29.722Z,10.38
2022-11-24T03:33:31.174Z,9.05
2022-11-24T03:38:32.683Z,9.07
2022-11-24T03:43:35.913Z,9.95
2022-11-24T03:48:40.626Z,9.18
2022-11-24T03:53:42.084Z,8.38
2022-11-24T03:58:43.536Z,7.72
2022-11-24T04:03:44.984Z,8.55
2022-11-24T04:08:46.444Z,7.75
2022-11-24T04:13:47.921Z,6.82
2022-11-24T04:18:52.249Z,6.03
2022-11-24T04:23:53.702Z,8.15
2022-11-24T04:28:55.160Z,5.85
2022-11-24T04:33:56.624Z,5.30
2022-11-24T04:39:23.122Z,5.97
2022-11-24T04:44:19.520Z,5.35
2022-11-24T04:49:20.972Z,5.70
2022-11-24T04:54:22.426Z,5.78
2022-11-24T04:59:23.880Z,5.50
2022-11-24T05:04:25.362Z,6.28
2022-11-24T05:09:48.000Z,4.88
2022-11-24T05:14:48.292Z,4.75
2022-11-24T05:19:49.760Z,6.18
2022-11-24T05:24:51.212Z,5.10
2022-11-24T05:29:52.695Z,4.82
2022-11-24T05:34:54.618Z,4.45
2022-11-24T05:39:56.076Z,6.00
2022-11-24T05:44:59.540Z,4.30
2022-11-24T05:50:01.012Z,4.90
2022-11-24T05:55:02.513Z,5.20
2022-11-24T06:00:05.700Z,5.78
2022-11-24T06:05:07.407Z,4.78
2022-11-24T06:10:09.150Z,3.70
2022-11-24T06:15:11.203Z,4.00
2022-11-24T06:20:12.704Z,6.38
2022-11-24T06:25:14.358Z,3.70
2022-11-24T06:30:15.824Z,4.88
2022-11-24T06:35:17.409Z,4.65
2022-11-24T06:40:18.899Z,5.60
2022-11-24T06:45:20.440Z,5.25
2022-11-24T06:50:22.553Z,4.57
2022-11-24T06:55:24.002Z,5.18
2022-11-24T07:00:25.537Z,5.03
2022-11-24T07:05:27.201Z,4.80
2022-11-24T07:10:28.728Z,4.43
2022-11-24T07:15:30.517Z,3.63
2022-11-24T07:20:32.014Z,3.28
2022-11-24T07:25:33.600Z,4.38
2022-11-24T07:30:35.060Z,4.75
2022-11-24T07:35:36.532Z,4.72
2022-11-24T07:40:37.983Z,4.25
2022-11-24T07:45:39.529Z,4.18
2022-11-24T07:50:41.021Z,4.63
2022-11-24T07:55:42.494Z,4.00
2022-11-24T08:00:43.959Z,3.67
2022-11-24T08:11:18.158Z,3.97
2022-11-24T08:16:19.740Z,3.50
2022-11-24T08:21:23.084Z,3.15
2022-11-24T08:26:25.103Z,3.13
2022-11-24T08:31:32.711Z,3.38
2022-11-24T08:36:35.177Z,3.65
2022-11-24T08:41:36.676Z,2.65
2022-11-24T08:46:38.250Z,4.13
2022-11-24T08:51:39.780Z,3.17
2022-11-24T08:56:41.264Z,3.08
2022-11-24T09:01:42.954Z,3.25
2022-11-24T09:06:44.499Z,3.40
2022-11-24T09:11:45.959Z,3.30
2022-11-24T09:16:47.502Z,3.13
2022-11-24T09:21:48.994Z,3.47
2022-11-24T09:26:50.471Z,3.53
2022-11-24T09:31:51.928Z,3.58
2022-11-24T09:36:53.384Z,4.25
2022-11-24T09:42:00.040Z,2.75
2022-11-24T09:47:18.949Z,3.60
2022-11-24T09:52:37.887Z,3.70
2022-11-24T09:57:39.336Z,3.28
2022-11-24T10:02:40.808Z,2.75
2022-11-24T10:07:45.351Z,3.05
2022-11-24T10:13:09.832Z,3.03
2022-11-24T10:18:33.150Z,2.83
2022-11-24T10:23:50.433Z,2.75
2022-11-24T10:28:54.148Z,3.83
2022-11-24T10:33:56.871Z,3.58
2022-11-24T10:44:13.901Z,3.28
2022-11-24T10:49:24.971Z,3.05
2022-11-24T10:54:26.436Z,3.65
2022-11-24T10:59:33.630Z,3.40
2022-11-24T11:04:35.477Z,3.30
2022-11-24T11:09:37.093Z,3.22
2022-11-24T11:14:38.848Z,3.15
2022-11-24T11:19:50.373Z,3.33
2022-11-24T11:25:19.336Z,3.00
2022-11-24T11:35:44.875Z,3.30
2022-11-24T11:40:46.328Z,3.58
2022-11-24T11:45:47.823Z,2.83
2022-11-24T11:56:20.593Z,3.42
2022-11-24T12:01:54.353Z,3.05
2022-11-24T12:07:07.618Z,3.40
2022-11-24T12:12:29.511Z,3.55
2022-11-24T12:17:52.645Z,2.95
2022-11-24T12:23:02.877Z,3.42
2022-11-24T12:28:24.097Z,3.90
2022-11-24T12:33:37.407Z,2.80
2022-11-24T12:38:45.613Z,2.67
2022-11-24T12:43:54.801Z,2.92
2022-11-24T12:49:17.418Z,3.25
2022-11-24T12:54:19.795Z,2.97
2022-11-24T12:59:34.571Z,2.83
2022-11-24T13:04:41.871Z,3.38
2022-11-24T13:10:34.657Z,2.80
2022-11-24T13:16:28.480Z,2.70
2022-11-24T13:21:28.249Z,3.33
2022-11-24T13:26:44.695Z,2.90
2022-11-24T13:31:46.252Z,2.92
2022-11-24T13:36:52.258Z,2.08
2022-11-24T13:41:53.622Z,2.80
2022-11-24T13:47:00.176Z,2.20
2022-11-24T13:52:39.610Z,2.50
2022-11-24T13:58:05.018Z,2.58
2022-11-24T14:03:19.647Z,2.63
2022-11-24T14:08:25.591Z,2.45
2022-11-24T14:13:28.603Z,1.73
2022-11-24T14:18:31.522Z,3.08
2022-11-24T14:23:33.006Z,2.33
2022-11-24T14:28:34.587Z,3.38
2022-11-24T14:33:36.350Z,2.83
2022-11-24T14:38:37.828Z,2.50
2022-11-24T14:43:39.293Z,3.90
2022-11-24T14:48:50.722Z,2.05
2022-11-24T14:53:59.877Z,2.08
2022-11-24T14:59:01.354Z,2.60
2022-11-24T15:09:47.496Z,2.55
2022-11-24T15:14:52.436Z,2.50
2022-11-24T15:20:30.322Z,2.13
2022-11-24T15:25:33.327Z,2.75
2022-11-24T15:30:35.576Z,2.13
2022-11-24T15:35:37.060Z,3.55
2022-11-24T15:40:39.047Z,2.83
2022-11-24T15:45:40.502Z,2.35
2022-11-24T15:50:41.977Z,2.03
2022-11-24T15:55:43.484Z,2.35
2022-11-24T16:00:45.357Z,2.30
2022-11-24T16:05:46.888Z,2.40
2022-11-24T16:10:48.354Z,1.88
2022-11-24T16:15:50.017Z,2.10
2022-11-24T16:20:51.604Z,1.60
2022-11-24T16:25:53.068Z,1.95
2022-11-24T16:30:54.571Z,1.77
2022-11-24T16:35:56.065Z,3.08
2022-11-24T16:40:57.544Z,2.65
2022-11-24T16:46:17.597Z,2.78
2022-11-24T16:51:20.624Z,2.47
2022-11-24T16:56:22.084Z,3.33
2022-11-24T17:01:23.694Z,3.05
2022-11-24T17:06:26.748Z,3.22
2022-11-24T17:11:28.412Z,3.25
2022-11-24T17:16:30.128Z,3.15
2022-11-24T17:21:32.136Z,3.15
2022-11-24T17:26:33.688Z,3.20
2022-11-24T17:31:40.033Z,3.80
2022-11-24T17:36:44.570Z,3.70
2022-11-24T17:41:46.118Z,3.88
2022-11-24T17:46:47.578Z,4.50
2022-11-24T17:51:50.471Z,4.45
2022-11-24T17:56:51.989Z,4.88
2022-11-24T18:01:53.495Z,5.22
2022-11-24T18:06:55.049Z,4.68
2022-11-24T18:11:56.514Z,4.72
2022-11-24T18:16:58.048Z,5.15
2022-11-24T18:21:59.576Z,5.22
2022-11-24T18:27:01.036Z,6.60
2022-11-24T18:32:02.587Z,6.78
2022-11-24T18:37:04.341Z,7.38
2022-11-24T18:42:05.828Z,7.43
2022-11-24T18:47:07.293Z,7.80
2022-11-24T18:52:08.780Z,7.88
2022-11-24T18:57:10.270Z,8.65
2022-11-24T19:02:12.261Z,8.05
2022-11-24T19:07:16.913Z,8.63
2022-11-24T19:12:18.457Z,10.50
2022-11-24T19:17:19.977Z,8.77
2022-11-24T19:22:21.748Z,9.05
2022-11-24T19:27:23.234Z,9.63
2022-11-24T19:32:24.720Z,10.75
2022-11-24T19:37:27.726Z,9.75
2022-11-24T19:42:29.203Z,10.40
2022-11-24T19:47:30.669Z,10.18
2022-11-24T19:52:32.135Z,10.20
2022-11-24T19:57:33.616Z,8.95
2022-11-24T20:02:35.131Z,10.63
2022-11-24T20:07:36.769Z,9.60
2022-11-24T20:12:38.250Z,9.50
2022-11-24T20:17:39.726Z,10.63
2022-11-24T20:22:41.524Z,10.85
2022-11-24T20:27:42.992Z,10.95
2022-11-24T20:32:44.469Z,10.15
2022-11-24T20:37:45.929Z,10.35
2022-11-24T20:42:47.383Z,9.07
2022-11-24T20:47:48.850Z,9.65
2022-11-24T20:52:50.323Z,9.68
2022-11-24T20:57:51.785Z,9.45
2022-11-24T21:02:53.313Z,8.50
2022-11-24T21:07:54.871Z,8.68
2022-11-24T21:12:56.408Z,6.25
2022-11-24T21:17:57.928Z,6.45
2022-11-24T21:22:59.393Z,8.25
2022-11-24T21:28:00.862Z,6.65
2022-11-24T21:33:05.401Z,9.45
2022-11-24T21:38:06.854Z,6.93
2022-11-24T21:43:08.904Z,6.22
2022-11-24T21:48:10.365Z,6.63
2022-11-24T21:53:11.824Z,6.78
2022-11-24T21:58:13.844Z,6.32
2022-11-24T22:03:15.317Z,7.18
2022-11-24T22:08:16.776Z,6.35
2022-11-24T22:13:18.340Z,7.10
2022-11-24T22:18:19.824Z,6.82
2022-11-24T22:23:21.274Z,5.65
2022-11-24T22:28:22.732Z,6.30
2022-11-24T22:33:24.185Z,6.07
2022-11-24T22:38:25.804Z,5.30
2022-11-24T22:43:27.261Z,5.53
2022-11-24T22:48:28.723Z,7.13
2022-11-24T22:53:30.423Z,4.88
2022-11-24T22:58:32.164Z,5.90
2022-11-24T23:03:34.353Z,5.95
2022-11-24T23:08:35.908Z,5.38
2022-11-24T23:13:37.378Z,5.53
2022-11-24T23:18:38.918Z,5.68
2022-11-24T23:23:40.452Z,6.40
2022-11-24T23:28:43.067Z,6.15
2022-11-24T23:33:44.596Z,5.63
2022-11-24T23:38:46.357Z,5.68
2022-11-24T23:43:47.835Z,6.35
2022-11-24T23:48:49.730Z,4.75
2022-11-24T23:53:51.266Z,5.55
2022-11-24T23:58:52.778Z,6.13
